createdAt,value
2022-11-23T00:01:16.971Z,80.49
2022-11-23T00:03:45.260Z,80.00
2022-11-23T00:06:12.578Z,80.02
2022-11-23T00:08:39.945Z,80.17
2022-11-23T00:11:07.212Z,79.64
2022-11-23T00:13:35.719Z,80.20
2022-11-23T00:16:26.582Z,80.25
2022-11-23T00:18:53.852Z,80.27
2022-11-23T00:21:22.491Z,80.61
2022-11-23T00:23:49.653Z,79.71
2022-11-23T00:26:17.342Z,80.31
2022-11-23T00:28:45.179Z,80.81
2022-11-23T00:31:14.520Z,80.57
2022-11-23T00:33:42.251Z,81.53
2022-11-23T00:36:14.443Z,81.46
2022-11-23T00:38:42.506Z,82.29
2022-11-23T00:41:12.150Z,81.96
2022-11-23T00:43:39.133Z,81.27
2022-11-23T00:46:20.803Z,81.21
2022-11-23T00:48:50.306Z,81.25
2022-11-23T00:51:19.884Z,81.26
2022-11-23T00:53:47.248Z,80.88
2022-11-23T00:56:18.582Z,80.57
2022-11-23T00:58:56.488Z,80.35
2022-11-23T01:01:25.534Z,79.66
2022-11-23T01:03:54.850Z,80.31
2022-11-23T01:06:31.118Z,80.13
2022-11-23T01:09:00.808Z,80.30
2022-11-23T01:11:29.594Z,80.95
2022-11-23T01:13:56.529Z,81.91
2022-11-23T01:16:26.228Z,82.64
2022-11-23T01:18:57.039Z,82.36
2022-11-23T01:21:24.308Z,82.60
2022-11-23T01:23:51.772Z,82.91
2022-11-23T01:26:18.834Z,82.45
2022-11-23T01:28:45.785Z,82.91
2022-11-23T01:31:16.933Z,82.93
2022-11-23T01:33:43.869Z,83.21
2022-11-23T01:36:21.846Z,83.05
2022-11-23T01:38:49.337Z,82.90
2022-11-23T01:41:28.131Z,82.35
2022-11-23T01:43:55.712Z,82.79
2022-11-23T01:46:23.155Z,83.29
2022-11-23T01:48:58.365Z,83.07
2022-11-23T01:51:45.025Z,83.24
2022-11-23T01:54:16.436Z,82.18
2022-11-23T01:56:47.354Z,81.93
2022-11-23T01:59:17.159Z,82.83
2022-11-23T02:01:44.886Z,83.22
2022-11-23T02:04:25.625Z,82.74
2022-11-23T02:06:53.009Z,82.50
2022-11-23T02:09:20.912Z,82.38
2022-11-23T02:11:47.888Z,82.40
2022-11-23T02:14:19.060Z,82.56
2022-11-23T02:16:50.170Z,83.26
2022-11-23T02:19:31.313Z,83.36
2022-11-23T02:21:58.360Z,82.32
2022-11-23T02:24:31.917Z,82.83
2022-11-23T02:26:58.910Z,82.07
2022-11-23T02:29:27.024Z,82.07
2022-11-23T02:31:54.799Z,82.13
2022-11-23T02:34:21.898Z,81.52
2022-11-23T02:36:51.723Z,81.92
2022-11-23T02:39:28.292Z,82.86
2022-11-23T02:41:56.178Z,82.80
2022-11-23T02:44:26.224Z,82.53
2022-11-23T02:46:53.393Z,81.88
2022-11-23T02:49:21.483Z,81.75
2022-11-23T02:51:48.414Z,81.12
2022-11-23T02:54:15.399Z,80.78
2022-11-23T02:56:42.453Z,81.14
2022-11-23T02:59:09.475Z,81.75
2022-11-23T03:01:37.638Z,82.87
2022-11-23T03:04:04.832Z,82.86
2022-11-23T03:06:31.753Z,82.73
2022-11-23T03:08:58.709Z,82.69
2022-11-23T03:11:26.112Z,83.12
2022-11-23T03:13:53.080Z,83.03
2022-11-23T03:16:20.049Z,82.85
2022-11-23T03:18:46.972Z,82.56
2022-11-23T03:21:13.954Z,82.64
2022-11-23T03:23:40.886Z,82.03
2022-11-23T03:26:12.675Z,82.79
2022-11-23T03:28:40.271Z,82.48
2022-11-23T03:31:07.353Z,81.59
2022-11-23T03:33:34.380Z,81.64
2022-11-23T03:36:01.614Z,81.25
2022-11-23T03:38:28.733Z,81.08
2022-11-23T03:40:55.756Z,80.77
2022-11-23T03:43:23.685Z,80.80
2022-11-23T03:45:50.681Z,81.99
2022-11-23T03:48:18.016Z,82.13
2022-11-23T03:50:45.625Z,82.18
2022-11-23T03:53:12.966Z,82.22
2022-11-23T03:55:39.994Z,82.42
2022-11-23T03:58:07.059Z,82.69
2022-11-23T04:00:34.595Z,82.97
2022-11-23T04:03:01.568Z,82.18
2022-11-23T04:05:28.708Z,82.26
2022-11-23T04:07:55.637Z,82.16
2022-11-23T04:10:22.567Z,82.94
2022-11-23T04:12:53.408Z,82.82
2022-11-23T04:15:20.551Z,82.00
2022-11-23T04:17:47.759Z,81.52
2022-11-23T04:20:15.088Z,81.02
2022-11-23T04:22:41.913Z,80.45
2022-11-23T04:25:09.835Z,80.43
2022-11-23T04:27:36.788Z,80.20
2022-11-23T04:30:04.746Z,80.04
2022-11-23T04:32:31.702Z,80.28
2022-11-23T04:34:58.674Z,80.91
2022-11-23T04:37:25.596Z,81.12
2022-11-23T04:39:52.553Z,81.59
2022-11-23T04:42:19.570Z,81.41
2022-11-23T04:44:48.905Z,81.53
2022-11-23T04:47:15.991Z,81.54
2022-11-23T04:49:43.306Z,82.16
2022-11-23T04:52:10.382Z,81.90
2022-11-23T04:54:37.275Z,81.94
2022-11-23T04:57:04.464Z,81.75
2022-11-23T04:59:31.719Z,82.49
2022-11-23T05:01:58.982Z,82.60
2022-11-23T05:04:25.912Z,82.92
2022-11-23T05:06:53.514Z,83.46
2022-11-23T05:09:20.492Z,83.35
2022-11-23T05:11:47.515Z,82.93
2022-11-23T05:14:14.652Z,82.84
2022-11-23T05:16:41.997Z,82.72
2022-11-23T05:19:09.052Z,82.34
2022-11-23T05:21:36.058Z,82.82
2022-11-23T05:24:03.023Z,83.07
2022-11-23T05:26:29.971Z,82.92
2022-11-23T05:28:56.952Z,82.90
2022-11-23T05:31:23.908Z,83.65
2022-11-23T05:33:50.840Z,83.16
2022-11-23T05:36:17.792Z,82.84
2022-11-23T05:38:45.608Z,83.18
2022-11-23T05:41:13.016Z,83.31
2022-11-23T05:43:39.943Z,83.81
2022-11-23T05:46:07.126Z,83.40
2022-11-23T05:48:34.104Z,83.94
2022-11-23T05:51:05.137Z,83.84
2022-11-23T05:53:32.675Z,83.92
2022-11-23T05:56:02.985Z,83.98
2022-11-23T05:58:30.190Z,83.99
2022-11-23T06:01:01.518Z,84.16
2022-11-23T06:03:28.694Z,84.10
2022-11-23T06:05:55.790Z,83.77
2022-11-23T06:08:22.753Z,83.90
2022-11-23T06:10:50.362Z,83.82
2022-11-23T06:13:17.306Z,83.51
2022-11-23T06:15:44.147Z,83.54
2022-11-23T06:18:11.283Z,84.47
2022-11-23T06:20:38.328Z,84.36
2022-11-23T06:23:05.288Z,84.03
2022-11-23T06:25:32.535Z,83.77
2022-11-23T06:28:00.951Z,83.49
2022-11-23T06:30:29.502Z,83.11
2022-11-23T06:32:56.748Z,82.75
2022-11-23T06:35:24.120Z,83.09
2022-11-23T06:37:54.858Z,82.88
2022-11-23T06:40:21.745Z,83.73
2022-11-23T06:42:48.909Z,83.21
2022-11-23T06:45:16.252Z,83.75
2022-11-23T06:47:44.159Z,83.54
2022-11-23T06:50:11.450Z,82.87
2022-11-23T06:52:38.465Z,82.46
2022-11-23T06:55:05.965Z,82.80
2022-11-23T06:57:32.971Z,82.74
2022-11-23T06:59:59.990Z,82.82
2022-11-23T07:02:26.979Z,82.96
2022-11-23T07:04:53.997Z,83.67
2022-11-23T07:07:21.220Z,83.89
2022-11-23T07:09:48.379Z,84.37
2022-11-23T07:12:15.342Z,84.22
2022-11-23T07:14:42.326Z,84.02
2022-11-23T07:17:12.656Z,83.71
2022-11-23T07:19:41.853Z,84.66
2022-11-23T07:22:08.800Z,84.53
2022-11-23T07:24:40.520Z,84.16
2022-11-23T07:27:09.671Z,84.02
2022-11-23T07:29:36.641Z,83.67
2022-11-23T07:32:03.956Z,83.54
2022-11-23T07:34:30.875Z,83.48
2022-11-23T07:37:01.798Z,82.28
2022-11-23T07:39:55.197Z,83.61
2022-11-23T07:42:32.206Z,83.32
2022-11-23T07:45:00.970Z,83.04
2022-11-23T07:47:27.932Z,83.11
2022-11-23T07:49:54.922Z,83.28
2022-11-23T07:52:22.107Z,83.31
2022-11-23T07:54:49.219Z,82.26
2022-11-23T07:57:16.176Z,81.75
2022-11-23T07:59:43.138Z,81.36
2022-11-23T08:02:15.044Z,81.05
2022-11-23T08:04:42.213Z,81.03
2022-11-23T08:07:09.314Z,80.96
2022-11-23T08:09:36.639Z,80.47
2022-11-23T08:12:03.606Z,80.94
2022-11-23T08:14:30.960Z,80.67
2022-11-23T08:16:58.135Z,80.16
2022-11-23T08:19:25.123Z,80.08
2022-11-23T08:21:52.109Z,80.63
2022-11-23T08:24:19.161Z,80.60
2022-11-23T08:26:46.742Z,81.16
2022-11-23T08:29:13.689Z,82.24
2022-11-23T08:31:40.713Z,81.67
2022-11-23T08:34:07.768Z,82.05
2022-11-23T08:36:34.733Z,81.77
2022-11-23T08:39:01.816Z,81.52
2022-11-23T08:41:29.003Z,81.54
2022-11-23T08:43:56.475Z,81.77
2022-11-23T08:46:23.461Z,81.88
2022-11-23T08:48:51.426Z,81.07
2022-11-23T08:51:22.912Z,81.57
2022-11-23T08:53:50.590Z,81.44
2022-11-23T08:56:18.068Z,81.87
2022-11-23T08:58:45.429Z,81.41
2022-11-23T09:01:17.166Z,81.58
2022-11-23T09:03:44.794Z,81.42
2022-11-23T09:06:12.487Z,81.37
2022-11-23T09:08:39.550Z,81.92
2022-11-23T09:11:08.085Z,81.95
2022-11-23T09:13:38.644Z,80.96
2022-11-23T09:16:06.934Z,80.90
2022-11-23T09:18:35.923Z,80.94
2022-11-23T09:21:06.401Z,81.46
2022-11-23T09:23:33.757Z,81.77
2022-11-23T09:26:01.736Z,80.93
2022-11-23T09:28:29.353Z,81.41
2022-11-23T09:30:57.092Z,80.85
2022-11-23T09:33:25.189Z,80.77
2022-11-23T09:36:03.293Z,80.70
2022-11-23T09:38:56.158Z,81.14
2022-11-23T09:41:52.784Z,80.83
2022-11-23T09:44:41.638Z,81.09
2022-11-23T09:47:42.448Z,81.01
2022-11-23T09:50:12.107Z,81.54
2022-11-23T09:52:43.359Z,81.11
2022-11-23T09:55:22.661Z,80.74
2022-11-23T09:57:50.154Z,80.79
2022-11-23T10:00:20.458Z,80.84
2022-11-23T10:02:47.876Z,80.92
2022-11-23T10:05:20.734Z,80.60
2022-11-23T10:08:11.095Z,80.72
2022-11-23T10:10:46.432Z,81.14
2022-11-23T10:13:36.291Z,81.11
2022-11-23T10:16:06.094Z,80.68
2022-11-23T10:18:56.479Z,80.08
2022-11-23T10:21:40.391Z,79.94
2022-11-23T10:24:25.273Z,80.19
2022-11-23T10:26:52.458Z,80.16
2022-11-23T10:29:22.695Z,79.96
2022-11-23T10:31:55.468Z,79.56
2022-11-23T10:34:48.718Z,80.33
2022-11-23T10:37:16.851Z,80.55
2022-11-23T10:39:44.018Z,79.66
2022-11-23T10:42:21.652Z,79.91
2022-11-23T10:44:50.199Z,79.71
2022-11-23T10:47:59.275Z,79.66
2022-11-23T10:50:37.755Z,79.44
2022-11-23T10:53:26.363Z,79.26
2022-11-23T10:56:08.989Z,79.21
2022-11-23T10:58:46.673Z,79.30
2022-11-23T11:01:25.083Z,79.78
2022-11-23T11:03:53.101Z,80.31
2022-11-23T11:06:29.491Z,79.65
2022-11-23T11:09:03.635Z,79.74
2022-11-23T11:11:46.567Z,79.66
2022-11-23T11:14:23.692Z,79.04
2022-11-23T11:16:56.044Z,78.59
2022-11-23T11:19:27.985Z,79.11
2022-11-23T11:21:55.477Z,78.90
2022-11-23T11:24:45.863Z,79.24
2022-11-23T11:27:22.576Z,78.54
2022-11-23T11:29:52.520Z,78.30
2022-11-23T11:32:26.382Z,77.53
2022-11-23T11:34:59.101Z,78.49
2022-11-23T11:37:47.005Z,78.97
2022-11-23T11:40:17.025Z,79.09
2022-11-23T11:42:47.411Z,78.07
2022-11-23T11:45:23.444Z,78.22
2022-11-23T11:48:00.775Z,78.34
2022-11-23T11:50:32.074Z,78.27
2022-11-23T11:53:13.162Z,78.06
2022-11-23T11:56:00.304Z,78.06
2022-11-23T11:58:27.712Z,78.51
2022-11-23T12:01:04.448Z,77.78
2022-11-23T12:03:43.285Z,78.29
2022-11-23T12:06:26.646Z,77.95
2022-11-23T12:09:17.354Z,78.41
2022-11-23T12:11:44.746Z,78.42
2022-11-23T12:14:14.116Z,78.39
2022-11-23T12:17:32.419Z,79.00
2022-11-23T12:20:15.971Z,79.10
2022-11-23T12:22:55.744Z,78.86
2022-11-23T12:25:34.930Z,78.70
2022-11-23T12:28:20.644Z,79.06
2022-11-23T12:30:58.317Z,79.10
2022-11-23T12:33:28.167Z,79.33
2022-11-23T12:36:22.354Z,79.53
2022-11-23T12:39:17.175Z,79.79
2022-11-23T12:41:54.776Z,79.42
2022-11-23T12:44:39.044Z,80.09
2022-11-23T12:47:21.164Z,79.44
2022-11-23T12:50:03.952Z,79.64
2022-11-23T12:52:58.278Z,79.86
2022-11-23T12:55:26.502Z,79.18
2022-11-23T12:58:12.213Z,79.32
2022-11-23T13:01:30.645Z,78.95
2022-11-23T13:04:09.135Z,78.85
2022-11-23T13:07:26.199Z,78.92
2022-11-23T13:10:09.605Z,78.67
2022-11-23T13:12:36.564Z,78.55
2022-11-23T13:15:30.419Z,79.34
2022-11-23T13:18:31.331Z,79.15
2022-11-23T13:21:11.332Z,79.00
2022-11-23T13:23:39.151Z,79.35
2022-11-23T13:26:17.404Z,79.73
2022-11-23T13:28:46.529Z,79.70
2022-11-23T13:31:16.856Z,79.46
2022-11-23T13:33:49.136Z,79.69
2022-11-23T13:39:43.511Z,80.21
2022-11-23T13:42:11.567Z,79.25
2022-11-23T13:44:39.122Z,79.58
2022-11-23T13:47:18.088Z,80.01
2022-11-23T13:49:51.715Z,80.40
2022-11-23T13:52:21.816Z,80.19
2022-11-23T13:55:08.879Z,79.94
2022-11-23T13:57:38.263Z,79.66
2022-11-23T14:00:42.618Z,80.15
2022-11-23T14:03:44.448Z,79.75
2022-11-23T14:06:20.086Z,79.88
2022-11-23T14:08:49.473Z,79.52
2022-11-23T14:11:21.198Z,80.09
2022-11-23T14:13:54.530Z,80.27
2022-11-23T14:16:47.390Z,80.20
2022-11-23T14:19:51.921Z,80.58
2022-11-23T14:22:27.626Z,80.81
2022-11-23T14:25:04.153Z,80.96
2022-11-23T14:28:45.035Z,81.20
2022-11-23T14:31:39.580Z,80.71
2022-11-23T14:34:24.801Z,81.00
2022-11-23T14:37:08.751Z,80.22
2022-11-23T14:39:56.749Z,81.65
2022-11-23T14:42:27.991Z,81.74
2022-11-23T14:44:55.188Z,81.50
2022-11-23T14:47:27.705Z,81.10
2022-11-23T14:49:54.965Z,81.10
2022-11-23T14:52:33.804Z,80.52
2022-11-23T14:55:03.523Z,80.86
2022-11-23T14:57:40.149Z,80.64
2022-11-23T15:00:11.811Z,81.06
2022-11-23T15:02:41.263Z,81.13
2022-11-23T15:05:18.052Z,81.86
2022-11-23T15:07:52.691Z,82.32
2022-11-23T15:10:40.933Z,81.75
2022-11-23T15:13:24.986Z,81.63
2022-11-23T15:15:55.244Z,81.53
2022-11-23T15:18:38.294Z,81.17
2022-11-23T15:21:27.862Z,81.33
2022-11-23T15:23:57.789Z,81.61
2022-11-23T15:29:38.250Z,81.32
2022-11-23T15:32:32.093Z,81.43
2022-11-23T15:35:03.753Z,81.33
2022-11-23T15:37:30.513Z,81.36
2022-11-23T15:39:57.949Z,81.41
2022-11-23T15:42:26.431Z,80.95
2022-11-23T15:47:40.492Z,80.81
2022-11-23T15:50:10.438Z,80.89
2022-11-23T15:52:38.196Z,80.40
2022-11-23T15:54:53.532Z,80.74
2022-11-23T15:55:10.166Z,80.54
2022-11-23T15:57:37.938Z,80.20
2022-11-23T16:00:06.428Z,80.25
2022-11-23T16:02:33.613Z,80.72
2022-11-23T16:05:05.898Z,80.80
2022-11-23T16:07:33.045Z,80.55
2022-11-23T16:10:21.505Z,81.10
2022-11-23T16:13:02.417Z,80.59
2022-11-23T16:15:38.732Z,81.08
2022-11-23T16:18:26.120Z,80.91
2022-11-23T16:20:59.485Z,80.64
2022-11-23T16:23:45.306Z,80.78
2022-11-23T16:26:13.992Z,80.64
2022-11-23T16:28:54.874Z,80.33
2022-11-23T16:31:29.376Z,80.72
2022-11-23T16:33:56.685Z,80.69
2022-11-23T16:36:26.764Z,80.74
2022-11-23T16:38:53.814Z,80.62
2022-11-23T16:41:20.789Z,81.25
2022-11-23T16:43:52.902Z,80.94
2022-11-23T16:46:20.177Z,81.31
2022-11-23T16:48:47.206Z,80.81
2022-11-23T16:51:14.875Z,81.34
2022-11-23T16:54:11.994Z,81.55
2022-11-23T16:56:30.566Z,81.19
2022-11-23T16:58:57.769Z,81.74
2022-11-23T17:01:26.613Z,81.91
2022-11-23T17:03:54.139Z,81.70
2022-11-23T17:06:23.874Z,81.88
2022-11-23T17:09:00.449Z,81.31
2022-11-23T17:11:30.199Z,81.55
2022-11-23T17:13:57.368Z,81.84
2022-11-23T17:16:27.244Z,81.69
2022-11-23T17:18:54.422Z,81.60
2022-11-23T17:21:21.366Z,81.99
2022-11-23T17:23:48.510Z,81.73
2022-11-23T17:26:36.917Z,81.58
2022-11-23T17:29:06.591Z,81.70
2022-11-23T17:31:33.977Z,81.48
2022-11-23T17:34:01.385Z,81.53
2022-11-23T17:36:29.618Z,81.62
2022-11-23T17:38:56.772Z,80.92
2022-11-23T17:41:24.160Z,81.57
2022-11-23T17:43:51.069Z,81.52
2022-11-23T17:46:26.766Z,81.93
2022-11-23T17:48:58.654Z,81.76
2022-11-23T17:51:25.997Z,81.60
2022-11-23T17:53:52.923Z,81.82
2022-11-23T17:56:24.783Z,82.05
2022-11-23T17:58:55.106Z,81.62
2022-11-23T18:01:23.150Z,81.04
2022-11-23T18:03:50.885Z,81.11
2022-11-23T18:06:20.949Z,81.49
2022-11-23T18:08:48.717Z,81.71
2022-11-23T18:11:16.116Z,81.75
2022-11-23T18:13:43.902Z,81.42
2022-11-23T18:16:11.569Z,81.23
2022-11-23T18:18:39.053Z,81.02
2022-11-23T18:21:10.242Z,80.98
2022-11-23T18:23:37.708Z,80.33
2022-11-23T18:26:30.179Z,81.08
2022-11-23T18:28:59.850Z,81.31
2022-11-23T18:31:27.336Z,80.87
2022-11-23T18:33:54.325Z,80.92
2022-11-23T18:36:22.359Z,81.14
2022-11-23T18:38:49.297Z,81.38
2022-11-23T18:41:17.495Z,81.11
2022-11-23T18:43:45.410Z,81.15
2022-11-23T18:46:19.457Z,81.17
2022-11-23T18:48:47.947Z,80.87
2022-11-23T18:51:16.329Z,81.01
2022-11-23T18:53:45.265Z,81.55
2022-11-23T18:56:12.173Z,81.48
2022-11-23T18:58:42.353Z,81.73
2022-11-23T19:01:12.694Z,81.61
2022-11-23T19:03:41.702Z,81.64
2022-11-23T19:06:09.781Z,81.51
2022-11-23T19:08:45.172Z,82.06
2022-11-23T19:11:19.425Z,82.03
2022-11-23T19:13:48.656Z,81.39
2022-11-23T19:16:18.117Z,81.24
2022-11-23T19:18:45.516Z,81.00
2022-11-23T19:21:17.720Z,80.48
2022-11-23T19:23:48.205Z,80.73
2022-11-23T19:26:15.052Z,80.72
2022-11-23T19:28:45.064Z,80.90
2022-11-23T19:31:15.031Z,81.20
2022-11-23T19:33:43.236Z,80.98
2022-11-23T19:36:13.077Z,80.21
2022-11-23T19:38:40.079Z,80.36
2022-11-23T19:41:07.275Z,80.28
2022-11-23T19:43:34.487Z,80.24
2022-11-23T19:46:02.980Z,80.63
2022-11-23T19:48:31.641Z,80.27
2022-11-23T19:51:04.309Z,80.83
2022-11-23T19:53:32.861Z,80.75
2022-11-23T19:56:12.990Z,80.47
2022-11-23T19:58:40.728Z,80.48
2022-11-23T20:01:11.145Z,80.55
2022-11-23T20:03:39.271Z,79.78
2022-11-23T20:06:10.367Z,80.10
2022-11-23T20:08:38.592Z,80.59
2022-11-23T20:11:16.846Z,79.91
2022-11-23T20:13:44.171Z,79.96
2022-11-23T20:16:13.219Z,79.81
2022-11-23T20:18:41.307Z,80.14
2022-11-23T20:21:15.273Z,79.91
2022-11-23T20:23:43.018Z,80.51
2022-11-23T20:26:11.542Z,80.22
2022-11-23T20:28:38.670Z,80.45
2022-11-23T20:31:07.067Z,80.23
2022-11-23T20:33:34.363Z,80.13
2022-11-23T20:36:14.643Z,79.70
2022-11-23T20:38:42.243Z,80.03
2022-11-23T20:41:19.792Z,80.01
2022-11-23T20:43:48.734Z,79.69
2022-11-23T20:46:31.735Z,80.05
2022-11-23T20:49:03.132Z,79.59
2022-11-23T20:51:30.705Z,79.68
2022-11-23T20:53:57.823Z,79.50
2022-11-23T20:56:27.280Z,79.55
2022-11-23T20:58:56.449Z,79.47
2022-11-23T21:01:24.296Z,80.05
2022-11-23T21:03:55.071Z,79.67
2022-11-23T21:06:22.334Z,79.62
2022-11-23T21:08:50.852Z,78.98
2022-11-23T21:11:46.980Z,79.80
2022-11-23T21:14:22.874Z,79.75
2022-11-23T21:16:55.382Z,79.98
2022-11-23T21:19:25.009Z,79.83
2022-11-23T21:21:52.206Z,79.53
2022-11-23T21:24:19.291Z,79.28
2022-11-23T21:26:46.707Z,78.43
2022-11-23T21:29:13.707Z,79.46
2022-11-23T21:31:43.061Z,79.58
2022-11-23T21:34:18.349Z,79.59
2022-11-23T21:36:45.687Z,79.45
2022-11-23T21:39:13.073Z,78.98
2022-11-23T21:41:40.485Z,79.64
2022-11-23T21:44:08.740Z,79.12
2022-11-23T21:46:38.238Z,79.55
2022-11-23T21:49:06.957Z,79.22
2022-11-23T21:51:34.575Z,78.87
2022-11-23T21:54:06.778Z,79.54
2022-11-23T21:56:33.780Z,79.38
2022-11-23T21:59:00.859Z,79.25
2022-11-23T22:06:57.461Z,78.72
2022-11-23T22:09:24.736Z,78.97
2022-11-23T22:11:51.990Z,78.86
2022-11-23T22:14:20.356Z,78.72
2022-11-23T22:16:54.216Z,79.70
2022-11-23T22:19:21.464Z,78.84
2022-11-23T22:21:49.042Z,78.14
2022-11-23T22:24:18.111Z,78.43
2022-11-23T22:26:46.112Z,79.12
2022-11-23T22:29:14.944Z,79.03
2022-11-23T22:31:42.305Z,79.19
2022-11-23T22:34:12.139Z,79.00
2022-11-23T22:36:39.599Z,79.29
2022-11-23T22:39:07.389Z,79.33
2022-11-23T22:41:37.655Z,79.76
2022-11-23T22:44:05.963Z,79.34
2022-11-23T22:46:33.528Z,79.16
2022-11-23T22:49:00.945Z,79.15
2022-11-23T22:51:29.244Z,79.25
2022-11-23T22:54:00.606Z,79.21
2022-11-23T22:56:29.279Z,79.33
2022-11-23T22:58:56.800Z,79.47
2022-11-23T23:01:29.509Z,79.07
2022-11-23T23:03:58.601Z,78.87
2022-11-23T23:06:28.213Z,78.17
2022-11-23T23:08:57.979Z,78.58
2022-11-23T23:11:26.927Z,78.37
2022-11-23T23:13:54.456Z,78.70
2022-11-23T23:16:22.306Z,79.21
2022-11-23T23:18:49.614Z,79.30
2022-11-23T23:21:19.299Z,79.54
2022-11-23T23:23:48.383Z,79.09
2022-11-23T23:26:17.777Z,79.41
2022-11-23T23:28:45.885Z,79.44
2022-11-23T23:31:15.180Z,79.61
2022-11-23T23:33:46.395Z,79.36
2022-11-23T23:36:16.681Z,79.41
2022-11-23T23:38:44.386Z,78.88
2022-11-23T23:41:13.287Z,79.25
2022-11-23T23:43:41.177Z,79.09
2022-11-23T23:46:10.601Z,78.98
2022-11-23T23:48:39.080Z,79.45
2022-11-23T23:51:11.499Z,79.58
2022-11-23T23:53:39.705Z,78.39
2022-11-23T23:56:09.328Z,79.31
2022-11-23T23:58:36.639Z,79.55
